sensor_id;sensor_type;location;lat;lon;timestamp;P1;durP1;ratioP1;P2;durP2;ratioP2
25127;SDS011;13107;51.304;6.866;2023-04-03T00:01:57;4.62;;;3.45;;
25127;SDS011;13107;51.304;6.866;2023-04-03T00:05:59;8.35;;;3.62;;
25127;SDS011;13107;51.304;6.866;2023-04-03T00:10:01;6.60;;;3.65;;
25127;SDS011;13107;51.304;6.866;2023-04-03T00:14:04;4.47;;;3.40;;
25127;SDS011;13107;51.304;6.866;2023-04-03T00:18:05;5.30;;;3.50;;
25127;SDS011;13107;51.304;6.866;2023-04-03T00:22:08;8.15;;;3.67;;
25127;SDS011;13107;51.304;6.866;2023-04-03T00:26:09;4.97;;;3.53;;
25127;SDS011;13107;51.304;6.866;2023-04-03T00:30:13;8.60;;;3.90;;
25127;SDS011;13107;51.304;6.866;2023-04-03T00:34:16;7.70;;;3.85;;
25127;SDS011;13107;51.304;6.866;2023-04-03T00:38:18;5.93;;;3.85;;
25127;SDS011;13107;51.304;6.866;2023-04-03T00:42:20;8.88;;;3.95;;
25127;SDS011;13107;51.304;6.866;2023-04-03T00:46:22;6.20;;;4.10;;
25127;SDS011;13107;51.304;6.866;2023-04-03T00:50:24;7.70;;;4.05;;
25127;SDS011;13107;51.304;6.866;2023-04-03T00:54:26;7.57;;;4.55;;
25127;SDS011;13107;51.304;6.866;2023-04-03T00:58:31;6.35;;;4.30;;
25127;SDS011;13107;51.304;6.866;2023-04-03T01:02:38;7.53;;;4.50;;
25127;SDS011;13107;51.304;6.866;2023-04-03T01:06:42;6.05;;;4.80;;
25127;SDS011;13107;51.304;6.866;2023-04-03T01:10:43;7.15;;;4.32;;
25127;SDS011;13107;51.304;6.866;2023-04-03T01:14:46;8.93;;;4.87;;
25127;SDS011;13107;51.304;6.866;2023-04-03T01:18:50;7.72;;;4.55;;
25127;SDS011;13107;51.304;6.866;2023-04-03T01:22:55;10.98;;;4.62;;
25127;SDS011;13107;51.304;6.866;2023-04-03T01:27:10;7.05;;;4.60;;
25127;SDS011;13107;51.304;6.866;2023-04-03T01:35:33;8.13;;;4.97;;
25127;SDS011;13107;51.304;6.866;2023-04-03T01:39:35;5.55;;;4.18;;
25127;SDS011;13107;51.304;6.866;2023-04-03T01:43:37;10.20;;;5.18;;
25127;SDS011;13107;51.304;6.866;2023-04-03T01:47:38;8.05;;;4.65;;
25127;SDS011;13107;51.304;6.866;2023-04-03T01:51:40;6.53;;;4.87;;
25127;SDS011;13107;51.304;6.866;2023-04-03T01:55:42;7.43;;;4.47;;
25127;SDS011;13107;51.304;6.866;2023-04-03T01:59:44;7.20;;;5.00;;
25127;SDS011;13107;51.304;6.866;2023-04-03T02:03:46;5.97;;;4.87;;
25127;SDS011;13107;51.304;6.866;2023-04-03T02:07:48;9.35;;;4.75;;
25127;SDS011;13107;51.304;6.866;2023-04-03T02:11:50;8.57;;;5.37;;
25127;SDS011;13107;51.304;6.866;2023-04-03T02:15:51;6.55;;;5.30;;
25127;SDS011;13107;51.304;6.866;2023-04-03T02:19:53;6.47;;;5.07;;
25127;SDS011;13107;51.304;6.866;2023-04-03T02:23:55;6.65;;;5.15;;
25127;SDS011;13107;51.304;6.866;2023-04-03T02:27:57;6.35;;;5.10;;
25127;SDS011;13107;51.304;6.866;2023-04-03T02:31:59;8.43;;;5.40;;
25127;SDS011;13107;51.304;6.866;2023-04-03T02:36:01;10.13;;;6.07;;
25127;SDS011;13107;51.304;6.866;2023-04-03T02:40:05;9.57;;;5.97;;
25127;SDS011;13107;51.304;6.866;2023-04-03T02:44:08;10.30;;;6.10;;
25127;SDS011;13107;51.304;6.866;2023-04-03T02:48:11;8.15;;;5.90;;
25127;SDS011;13107;51.304;6.866;2023-04-03T02:52:13;11.90;;;6.22;;
25127;SDS011;13107;51.304;6.866;2023-04-03T02:56:16;11.30;;;6.57;;
25127;SDS011;13107;51.304;6.866;2023-04-03T03:00:19;8.52;;;6.53;;
25127;SDS011;13107;51.304;6.866;2023-04-03T03:04:21;13.43;;;6.37;;
25127;SDS011;13107;51.304;6.866;2023-04-03T03:08:23;11.30;;;6.72;;
25127;SDS011;13107;51.304;6.866;2023-04-03T03:12:24;7.35;;;5.72;;
25127;SDS011;13107;51.304;6.866;2023-04-03T03:16:26;7.18;;;5.40;;
25127;SDS011;13107;51.304;6.866;2023-04-03T03:20:28;12.02;;;6.18;;
25127;SDS011;13107;51.304;6.866;2023-04-03T03:24:30;8.02;;;5.35;;
25127;SDS011;13107;51.304;6.866;2023-04-03T03:28:31;10.88;;;5.45;;
25127;SDS011;13107;51.304;6.866;2023-04-03T03:32:34;9.50;;;5.60;;
25127;SDS011;13107;51.304;6.866;2023-04-03T03:36:36;9.30;;;4.43;;
25127;SDS011;13107;51.304;6.866;2023-04-03T03:40:37;9.68;;;4.72;;
25127;SDS011;13107;51.304;6.866;2023-04-03T03:44:39;6.65;;;4.10;;
25127;SDS011;13107;51.304;6.866;2023-04-03T03:48:41;7.55;;;3.80;;
25127;SDS011;13107;51.304;6.866;2023-04-03T03:52:43;6.72;;;3.72;;
25127;SDS011;13107;51.304;6.866;2023-04-03T03:56:45;8.50;;;4.25;;
25127;SDS011;13107;51.304;6.866;2023-04-03T04:00:47;7.62;;;4.22;;
25127;SDS011;13107;51.304;6.866;2023-04-03T04:04:49;6.75;;;3.20;;
25127;SDS011;13107;51.304;6.866;2023-04-03T04:08:50;6.57;;;3.53;;
25127;SDS011;13107;51.304;6.866;2023-04-03T04:12:53;6.97;;;3.35;;
25127;SDS011;13107;51.304;6.866;2023-04-03T04:16:58;10.57;;;3.23;;
25127;SDS011;13107;51.304;6.866;2023-04-03T04:21:00;6.68;;;3.25;;
25127;SDS011;13107;51.304;6.866;2023-04-03T04:25:02;12.10;;;3.20;;
25127;SDS011;13107;51.304;6.866;2023-04-03T04:29:03;6.03;;;2.97;;
25127;SDS011;13107;51.304;6.866;2023-04-03T04:33:05;7.28;;;3.78;;
25127;SDS011;13107;51.304;6.866;2023-04-03T04:37:08;7.50;;;3.10;;
25127;SDS011;13107;51.304;6.866;2023-04-03T04:41:09;8.73;;;2.70;;
25127;SDS011;13107;51.304;6.866;2023-04-03T04:45:11;7.12;;;3.37;;
25127;SDS011;13107;51.304;6.866;2023-04-03T04:49:13;5.97;;;3.08;;
25127;SDS011;13107;51.304;6.866;2023-04-03T04:53:15;8.23;;;2.70;;
25127;SDS011;13107;51.304;6.866;2023-04-03T04:57:17;5.40;;;3.33;;
25127;SDS011;13107;51.304;6.866;2023-04-03T05:01:18;7.12;;;2.72;;
25127;SDS011;13107;51.304;6.866;2023-04-03T05:05:20;14.52;;;3.60;;
25127;SDS011;13107;51.304;6.866;2023-04-03T05:09:23;6.75;;;2.62;;
25127;SDS011;13107;51.304;6.866;2023-04-03T05:13:25;13.45;;;5.93;;
25127;SDS011;13107;51.304;6.866;2023-04-03T05:17:26;6.37;;;3.17;;
25127;SDS011;13107;51.304;6.866;2023-04-03T05:21:29;9.35;;;2.70;;
25127;SDS011;13107;51.304;6.866;2023-04-03T05:25:33;9.15;;;2.72;;
25127;SDS011;13107;51.304;6.866;2023-04-03T05:29:35;7.45;;;3.03;;
25127;SDS011;13107;51.304;6.866;2023-04-03T05:33:37;8.07;;;2.58;;
25127;SDS011;13107;51.304;6.866;2023-04-03T05:37:39;12.10;;;3.03;;
25127;SDS011;13107;51.304;6.866;2023-04-03T05:41:41;11.10;;;3.50;;
25127;SDS011;13107;51.304;6.866;2023-04-03T05:45:42;7.50;;;3.30;;
25127;SDS011;13107;51.304;6.866;2023-04-03T05:49:47;4.95;;;2.15;;
25127;SDS011;13107;51.304;6.866;2023-04-03T05:53:49;5.72;;;2.55;;
25127;SDS011;13107;51.304;6.866;2023-04-03T05:58:00;4.60;;;2.10;;
25127;SDS011;13107;51.304;6.866;2023-04-03T06:02:02;6.05;;;2.78;;
25127;SDS011;13107;51.304;6.866;2023-04-03T06:06:04;6.43;;;2.75;;
25127;SDS011;13107;51.304;6.866;2023-04-03T06:10:06;8.25;;;2.37;;
25127;SDS011;13107;51.304;6.866;2023-04-03T06:14:10;5.55;;;2.05;;
25127;SDS011;13107;51.304;6.866;2023-04-03T06:18:12;8.07;;;2.30;;
25127;SDS011;13107;51.304;6.866;2023-04-03T06:22:13;8.07;;;2.05;;
25127;SDS011;13107;51.304;6.866;2023-04-03T06:26:16;5.78;;;2.05;;
25127;SDS011;13107;51.304;6.866;2023-04-03T06:30:18;7.57;;;2.78;;
25127;SDS011;13107;51.304;6.866;2023-04-03T06:34:20;10.35;;;2.10;;
25127;SDS011;13107;51.304;6.866;2023-04-03T06:38:22;5.28;;;1.77;;
25127;SDS011;13107;51.304;6.866;2023-04-03T06:42:24;7.70;;;2.12;;
25127;SDS011;13107;51.304;6.866;2023-04-03T06:46:26;8.65;;;2.15;;
25127;SDS011;13107;51.304;6.866;2023-04-03T06:50:28;6.32;;;1.92;;
25127;SDS011;13107;51.304;6.866;2023-04-03T06:54:30;4.97;;;1.67;;
25127;SDS011;13107;51.304;6.866;2023-04-03T06:58:32;6.62;;;1.92;;
25127;SDS011;13107;51.304;6.866;2023-04-03T07:02:33;6.40;;;1.77;;
25127;SDS011;13107;51.304;6.866;2023-04-03T07:06:35;5.12;;;2.05;;
25127;SDS011;13107;51.304;6.866;2023-04-03T07:10:37;9.13;;;2.40;;
25127;SDS011;13107;51.304;6.866;2023-04-03T07:14:39;6.50;;;1.73;;
25127;SDS011;13107;51.304;6.866;2023-04-03T07:18:42;4.93;;;1.50;;
25127;SDS011;13107;51.304;6.866;2023-04-03T07:22:44;7.15;;;2.20;;
25127;SDS011;13107;51.304;6.866;2023-04-03T07:26:49;9.00;;;2.08;;
25127;SDS011;13107;51.304;6.866;2023-04-03T07:30:52;9.18;;;2.12;;
25127;SDS011;13107;51.304;6.866;2023-04-03T07:34:55;6.05;;;1.83;;
25127;SDS011;13107;51.304;6.866;2023-04-03T07:38:56;5.37;;;1.95;;
25127;SDS011;13107;51.304;6.866;2023-04-03T07:42:58;6.00;;;1.80;;
25127;SDS011;13107;51.304;6.866;2023-04-03T07:47:00;6.90;;;1.65;;
25127;SDS011;13107;51.304;6.866;2023-04-03T07:51:03;4.50;;;1.35;;
25127;SDS011;13107;51.304;6.866;2023-04-03T07:55:05;7.00;;;1.80;;
25127;SDS011;13107;51.304;6.866;2023-04-03T07:59:08;5.43;;;1.83;;
25127;SDS011;13107;51.304;6.866;2023-04-03T08:03:11;4.45;;;1.23;;
25127;SDS011;13107;51.304;6.866;2023-04-03T08:07:14;4.68;;;1.48;;
25127;SDS011;13107;51.304;6.866;2023-04-03T08:11:16;3.62;;;1.20;;
25127;SDS011;13107;51.304;6.866;2023-04-03T08:15:19;4.07;;;1.85;;
25127;SDS011;13107;51.304;6.866;2023-04-03T08:19:21;3.70;;;1.27;;
25127;SDS011;13107;51.304;6.866;2023-04-03T08:23:27;4.47;;;1.55;;
25127;SDS011;13107;51.304;6.866;2023-04-03T08:27:28;3.78;;;1.05;;
25127;SDS011;13107;51.304;6.866;2023-04-03T08:31:30;4.05;;;1.27;;
25127;SDS011;13107;51.304;6.866;2023-04-03T08:35:32;5.85;;;1.10;;
25127;SDS011;13107;51.304;6.866;2023-04-03T08:39:36;5.40;;;1.45;;
25127;SDS011;13107;51.304;6.866;2023-04-03T08:43:53;2.08;;;0.82;;
25127;SDS011;13107;51.304;6.866;2023-04-03T08:48:06;2.92;;;0.95;;
25127;SDS011;13107;51.304;6.866;2023-04-03T08:56:53;2.97;;;1.10;;
25127;SDS011;13107;51.304;6.866;2023-04-03T09:01:04;3.55;;;1.27;;
25127;SDS011;13107;51.304;6.866;2023-04-03T09:05:11;3.28;;;0.90;;
25127;SDS011;13107;51.304;6.866;2023-04-03T09:13:53;2.97;;;0.88;;
25127;SDS011;13107;51.304;6.866;2023-04-03T09:18:36;3.30;;;0.90;;
25127;SDS011;13107;51.304;6.866;2023-04-03T09:22:43;4.55;;;1.20;;
25127;SDS011;13107;51.304;6.866;2023-04-03T09:26:53;3.15;;;1.00;;
25127;SDS011;13107;51.304;6.866;2023-04-03T09:31:00;3.42;;;0.90;;
25127;SDS011;13107;51.304;6.866;2023-04-03T09:43:54;2.50;;;0.80;;
25127;SDS011;13107;51.304;6.866;2023-04-03T09:48:07;4.37;;;0.93;;
25127;SDS011;13107;51.304;6.866;2023-04-03T09:52:20;3.85;;;0.88;;
25127;SDS011;13107;51.304;6.866;2023-04-03T09:56:26;1.83;;;0.80;;
25127;SDS011;13107;51.304;6.866;2023-04-03T10:00:33;3.37;;;1.00;;
25127;SDS011;13107;51.304;6.866;2023-04-03T10:04:39;4.70;;;1.12;;
25127;SDS011;13107;51.304;6.866;2023-04-03T10:08:41;2.20;;;0.80;;
25127;SDS011;13107;51.304;6.866;2023-04-03T10:12:43;2.22;;;0.80;;
25127;SDS011;13107;51.304;6.866;2023-04-03T10:16:48;3.08;;;0.80;;
25127;SDS011;13107;51.304;6.866;2023-04-03T10:21:05;2.20;;;0.82;;
25127;SDS011;13107;51.304;6.866;2023-04-03T10:25:46;3.83;;;0.90;;
25127;SDS011;13107;51.304;6.866;2023-04-03T10:38:31;2.75;;;1.15;;
25127;SDS011;13107;51.304;6.866;2023-04-03T10:47:03;2.78;;;1.05;;
25127;SDS011;13107;51.304;6.866;2023-04-03T10:51:14;2.97;;;1.00;;
25127;SDS011;13107;51.304;6.866;2023-04-03T11:03:50;3.90;;;1.00;;
25127;SDS011;13107;51.304;6.866;2023-04-03T11:07:55;1.92;;;0.85;;
25127;SDS011;13107;51.304;6.866;2023-04-03T11:12:11;2.95;;;1.23;;
25127;SDS011;13107;51.304;6.866;2023-04-03T11:16:23;3.08;;;0.82;;
25127;SDS011;13107;51.304;6.866;2023-04-03T11:24:34;3.10;;;0.75;;
25127;SDS011;13107;51.304;6.866;2023-04-03T11:28:39;5.60;;;1.08;;
25127;SDS011;13107;51.304;6.866;2023-04-03T11:37:17;1.67;;;0.80;;
25127;SDS011;13107;51.304;6.866;2023-04-03T11:41:42;1.55;;;0.60;;
25127;SDS011;13107;51.304;6.866;2023-04-03T11:45:52;3.15;;;0.75;;
25127;SDS011;13107;51.304;6.866;2023-04-03T11:54:35;3.55;;;0.80;;
25127;SDS011;13107;51.304;6.866;2023-04-03T12:03:29;3.78;;;0.82;;
25127;SDS011;13107;51.304;6.866;2023-04-03T12:07:38;3.00;;;0.82;;
25127;SDS011;13107;51.304;6.866;2023-04-03T12:11:40;2.78;;;0.80;;
25127;SDS011;13107;51.304;6.866;2023-04-03T12:15:47;2.42;;;0.70;;
25127;SDS011;13107;51.304;6.866;2023-04-03T12:19:52;2.00;;;0.70;;
25127;SDS011;13107;51.304;6.866;2023-04-03T12:24:02;4.12;;;0.90;;
25127;SDS011;13107;51.304;6.866;2023-04-03T12:28:09;2.30;;;0.80;;
25127;SDS011;13107;51.304;6.866;2023-04-03T12:32:49;2.60;;;0.65;;
25127;SDS011;13107;51.304;6.866;2023-04-03T12:37:01;2.08;;;0.80;;
25127;SDS011;13107;51.304;6.866;2023-04-03T12:41:45;3.10;;;0.60;;
25127;SDS011;13107;51.304;6.866;2023-04-03T12:54:38;1.42;;;0.80;;
25127;SDS011;13107;51.304;6.866;2023-04-03T12:58:41;1.48;;;0.60;;
25127;SDS011;13107;51.304;6.866;2023-04-03T13:02:43;2.33;;;0.60;;
25127;SDS011;13107;51.304;6.866;2023-04-03T13:06:47;3.60;;;0.90;;
25127;SDS011;13107;51.304;6.866;2023-04-03T13:11:10;1.42;;;0.80;;
25127;SDS011;13107;51.304;6.866;2023-04-03T13:15:14;2.55;;;0.82;;
25127;SDS011;13107;51.304;6.866;2023-04-03T13:19:22;3.17;;;0.80;;
25127;SDS011;13107;51.304;6.866;2023-04-03T13:27:32;2.50;;;1.00;;
25127;SDS011;13107;51.304;6.866;2023-04-03T13:31:35;1.83;;;0.88;;
25127;SDS011;13107;51.304;6.866;2023-04-03T13:35:40;2.92;;;0.90;;
25127;SDS011;13107;51.304;6.866;2023-04-03T13:39:42;2.60;;;0.90;;
25127;SDS011;13107;51.304;6.866;2023-04-03T13:43:44;3.08;;;0.90;;
25127;SDS011;13107;51.304;6.866;2023-04-03T13:47:46;3.15;;;1.02;;
25127;SDS011;13107;51.304;6.866;2023-04-03T13:51:49;3.45;;;0.80;;
25127;SDS011;13107;51.304;6.866;2023-04-03T13:56:08;2.47;;;0.93;;
25127;SDS011;13107;51.304;6.866;2023-04-03T14:04:54;2.78;;;1.15;;
25127;SDS011;13107;51.304;6.866;2023-04-03T14:09:01;3.08;;;1.25;;
25127;SDS011;13107;51.304;6.866;2023-04-03T14:13:02;3.22;;;0.90;;
25127;SDS011;13107;51.304;6.866;2023-04-03T14:17:10;3.33;;;0.90;;
25127;SDS011;13107;51.304;6.866;2023-04-03T14:21:25;4.85;;;0.80;;
25127;SDS011;13107;51.304;6.866;2023-04-03T14:25:27;1.75;;;0.70;;
25127;SDS011;13107;51.304;6.866;2023-04-03T14:29:29;5.37;;;0.80;;
25127;SDS011;13107;51.304;6.866;2023-04-03T14:33:31;2.35;;;0.98;;
25127;SDS011;13107;51.304;6.866;2023-04-03T14:37:36;2.60;;;0.82;;
25127;SDS011;13107;51.304;6.866;2023-04-03T14:41:38;3.70;;;0.90;;
25127;SDS011;13107;51.304;6.866;2023-04-03T14:45:39;2.90;;;0.98;;
25127;SDS011;13107;51.304;6.866;2023-04-03T14:49:42;2.75;;;0.70;;
25127;SDS011;13107;51.304;6.866;2023-04-03T14:53:44;2.08;;;0.70;;
25127;SDS011;13107;51.304;6.866;2023-04-03T14:57:47;2.90;;;0.70;;
25127;SDS011;13107;51.304;6.866;2023-04-03T15:01:48;1.80;;;0.62;;
25127;SDS011;13107;51.304;6.866;2023-04-03T15:05:50;5.40;;;0.88;;
25127;SDS011;13107;51.304;6.866;2023-04-03T15:09:52;2.53;;;0.80;;
25127;SDS011;13107;51.304;6.866;2023-04-03T15:13:54;2.37;;;0.73;;
25127;SDS011;13107;51.304;6.866;2023-04-03T15:17:56;3.15;;;0.88;;
25127;SDS011;13107;51.304;6.866;2023-04-03T15:21:59;3.67;;;0.80;;
25127;SDS011;13107;51.304;6.866;2023-04-03T15:26:01;3.83;;;0.93;;
25127;SDS011;13107;51.304;6.866;2023-04-03T15:30:04;2.78;;;1.27;;
25127;SDS011;13107;51.304;6.866;2023-04-03T15:34:07;4.28;;;0.77;;
25127;SDS011;13107;51.304;6.866;2023-04-03T15:38:09;5.35;;;0.90;;
25127;SDS011;13107;51.304;6.866;2023-04-03T15:42:11;4.00;;;0.90;;
25127;SDS011;13107;51.304;6.866;2023-04-03T15:46:13;3.28;;;1.00;;
25127;SDS011;13107;51.304;6.866;2023-04-03T15:50:16;2.72;;;0.90;;
25127;SDS011;13107;51.304;6.866;2023-04-03T15:54:17;3.60;;;0.62;;
25127;SDS011;13107;51.304;6.866;2023-04-03T15:58:19;4.05;;;1.08;;
25127;SDS011;13107;51.304;6.866;2023-04-03T16:02:21;2.42;;;1.05;;
25127;SDS011;13107;51.304;6.866;2023-04-03T16:06:23;3.72;;;0.70;;
25127;SDS011;13107;51.304;6.866;2023-04-03T16:10:27;2.33;;;0.73;;
25127;SDS011;13107;51.304;6.866;2023-04-03T16:14:29;3.60;;;0.90;;
25127;SDS011;13107;51.304;6.866;2023-04-03T16:18:31;2.60;;;1.08;;
25127;SDS011;13107;51.304;6.866;2023-04-03T16:22:35;5.03;;;1.08;;
25127;SDS011;13107;51.304;6.866;2023-04-03T16:26:37;3.17;;;1.10;;
25127;SDS011;13107;51.304;6.866;2023-04-03T16:30:40;2.58;;;0.90;;
25127;SDS011;13107;51.304;6.866;2023-04-03T16:34:42;3.03;;;1.05;;
25127;SDS011;13107;51.304;6.866;2023-04-03T16:38:45;6.57;;;0.90;;
25127;SDS011;13107;51.304;6.866;2023-04-03T16:42:46;3.97;;;0.90;;
25127;SDS011;13107;51.304;6.866;2023-04-03T16:46:48;5.90;;;0.80;;
25127;SDS011;13107;51.304;6.866;2023-04-03T16:50:50;2.97;;;0.80;;
25127;SDS011;13107;51.304;6.866;2023-04-03T16:54:54;2.85;;;1.10;;
25127;SDS011;13107;51.304;6.866;2023-04-03T16:58:56;3.08;;;0.80;;
25127;SDS011;13107;51.304;6.866;2023-04-03T17:02:58;1.98;;;0.80;;
25127;SDS011;13107;51.304;6.866;2023-04-03T17:07:00;4.10;;;1.10;;
25127;SDS011;13107;51.304;6.866;2023-04-03T17:11:07;2.08;;;0.85;;
25127;SDS011;13107;51.304;6.866;2023-04-03T17:15:08;3.85;;;1.10;;
25127;SDS011;13107;51.304;6.866;2023-04-03T17:19:10;3.65;;;1.02;;
25127;SDS011;13107;51.304;6.866;2023-04-03T17:23:12;2.58;;;1.00;;
25127;SDS011;13107;51.304;6.866;2023-04-03T17:27:14;2.60;;;0.70;;
25127;SDS011;13107;51.304;6.866;2023-04-03T17:31:16;2.37;;;0.70;;
25127;SDS011;13107;51.304;6.866;2023-04-03T17:35:18;2.70;;;0.88;;
25127;SDS011;13107;51.304;6.866;2023-04-03T17:39:20;1.87;;;0.90;;
25127;SDS011;13107;51.304;6.866;2023-04-03T17:43:22;1.33;;;0.80;;
25127;SDS011;13107;51.304;6.866;2023-04-03T17:47:23;1.83;;;0.70;;
25127;SDS011;13107;51.304;6.866;2023-04-03T17:51:26;3.67;;;1.30;;
25127;SDS011;13107;51.304;6.866;2023-04-03T17:55:28;2.60;;;1.05;;
25127;SDS011;13107;51.304;6.866;2023-04-03T17:59:30;6.95;;;1.12;;
25127;SDS011;13107;51.304;6.866;2023-04-03T18:03:32;5.05;;;1.12;;
25127;SDS011;13107;51.304;6.866;2023-04-03T18:07:33;6.37;;;1.33;;
25127;SDS011;13107;51.304;6.866;2023-04-03T18:11:37;4.62;;;1.00;;
25127;SDS011;13107;51.304;6.866;2023-04-03T18:15:39;4.03;;;1.58;;
25127;SDS011;13107;51.304;6.866;2023-04-03T18:19:45;6.65;;;2.58;;
25127;SDS011;13107;51.304;6.866;2023-04-03T18:23:49;3.83;;;1.05;;
25127;SDS011;13107;51.304;6.866;2023-04-03T18:27:53;3.05;;;0.65;;
25127;SDS011;13107;51.304;6.866;2023-04-03T18:31:55;3.65;;;1.30;;
25127;SDS011;13107;51.304;6.866;2023-04-03T18:35:59;4.25;;;1.30;;
25127;SDS011;13107;51.304;6.866;2023-04-03T18:40:01;5.32;;;1.90;;
25127;SDS011;13107;51.304;6.866;2023-04-03T18:44:04;4.60;;;1.50;;
25127;SDS011;13107;51.304;6.866;2023-04-03T18:48:10;3.75;;;1.15;;
25127;SDS011;13107;51.304;6.866;2023-04-03T18:52:11;5.03;;;1.33;;
25127;SDS011;13107;51.304;6.866;2023-04-03T18:56:13;5.95;;;1.08;;
25127;SDS011;13107;51.304;6.866;2023-04-03T19:00:16;2.95;;;1.10;;
25127;SDS011;13107;51.304;6.866;2023-04-03T19:04:19;5.30;;;1.12;;
25127;SDS011;13107;51.304;6.866;2023-04-03T19:08:21;4.62;;;1.60;;
25127;SDS011;13107;51.304;6.866;2023-04-03T19:12:24;3.33;;;1.80;;
25127;SDS011;13107;51.304;6.866;2023-04-03T19:16:26;5.37;;;1.33;;
25127;SDS011;13107;51.304;6.866;2023-04-03T19:20:27;4.53;;;1.55;;
25127;SDS011;13107;51.304;6.866;2023-04-03T19:24:29;4.20;;;1.23;;
25127;SDS011;13107;51.304;6.866;2023-04-03T19:28:31;3.33;;;1.50;;
25127;SDS011;13107;51.304;6.866;2023-04-03T19:32:33;4.20;;;1.33;;
25127;SDS011;13107;51.304;6.866;2023-04-03T19:36:35;4.10;;;1.10;;
25127;SDS011;13107;51.304;6.866;2023-04-03T19:40:37;4.30;;;1.75;;
25127;SDS011;13107;51.304;6.866;2023-04-03T19:44:43;4.93;;;1.20;;
25127;SDS011;13107;51.304;6.866;2023-04-03T19:48:47;6.97;;;1.00;;
25127;SDS011;13107;51.304;6.866;2023-04-03T19:52:48;2.75;;;1.12;;
25127;SDS011;13107;51.304;6.866;2023-04-03T19:56:50;4.07;;;0.85;;
25127;SDS011;13107;51.304;6.866;2023-04-03T20:00:52;3.40;;;1.10;;
25127;SDS011;13107;51.304;6.866;2023-04-03T20:04:56;3.30;;;1.00;;
25127;SDS011;13107;51.304;6.866;2023-04-03T20:08:58;5.68;;;1.80;;
25127;SDS011;13107;51.304;6.866;2023-04-03T20:12:59;2.30;;;0.80;;
25127;SDS011;13107;51.304;6.866;2023-04-03T20:17:01;4.97;;;0.90;;
25127;SDS011;13107;51.304;6.866;2023-04-03T20:21:04;4.72;;;0.80;;
25127;SDS011;13107;51.304;6.866;2023-04-03T20:25:08;3.37;;;1.02;;
25127;SDS011;13107;51.304;6.866;2023-04-03T20:29:17;4.65;;;0.95;;
25127;SDS011;13107;51.304;6.866;2023-04-03T20:33:19;2.35;;;1.27;;
25127;SDS011;13107;51.304;6.866;2023-04-03T20:37:22;6.10;;;1.20;;
25127;SDS011;13107;51.304;6.866;2023-04-03T20:41:24;6.10;;;1.80;;
25127;SDS011;13107;51.304;6.866;2023-04-03T20:45:26;1.87;;;0.90;;
25127;SDS011;13107;51.304;6.866;2023-04-03T20:49:28;7.00;;;1.58;;
25127;SDS011;13107;51.304;6.866;2023-04-03T20:53:30;3.28;;;1.00;;
25127;SDS011;13107;51.304;6.866;2023-04-03T20:57:32;4.20;;;1.37;;
25127;SDS011;13107;51.304;6.866;2023-04-03T21:01:34;3.10;;;1.00;;
25127;SDS011;13107;51.304;6.866;2023-04-03T21:05:36;4.93;;;1.20;;
25127;SDS011;13107;51.304;6.866;2023-04-03T21:23:12;2.50;;;1.00;;
25127;SDS011;13107;51.304;6.866;2023-04-03T21:27:14;4.55;;;1.30;;
25127;SDS011;13107;51.304;6.866;2023-04-03T21:31:16;4.22;;;1.23;;
25127;SDS011;13107;51.304;6.866;2023-04-03T21:35:19;2.78;;;1.20;;
25127;SDS011;13107;51.304;6.866;2023-04-03T21:39:21;3.25;;;1.00;;
25127;SDS011;13107;51.304;6.866;2023-04-03T21:43:23;4.75;;;1.10;;
25127;SDS011;13107;51.304;6.866;2023-04-03T21:47:25;4.25;;;0.80;;
25127;SDS011;13107;51.304;6.866;2023-04-03T21:51:28;2.62;;;0.90;;
25127;SDS011;13107;51.304;6.866;2023-04-03T21:55:30;4.50;;;1.12;;
25127;SDS011;13107;51.304;6.866;2023-04-03T21:59:32;3.10;;;1.12;;
25127;SDS011;13107;51.304;6.866;2023-04-03T22:03:34;4.43;;;0.98;;
25127;SDS011;13107;51.304;6.866;2023-04-03T22:07:36;3.70;;;1.10;;
25127;SDS011;13107;51.304;6.866;2023-04-03T22:11:38;3.00;;;0.88;;
25127;SDS011;13107;51.304;6.866;2023-04-03T22:15:46;3.08;;;1.00;;
25127;SDS011;13107;51.304;6.866;2023-04-03T22:19:48;3.22;;;1.05;;
25127;SDS011;13107;51.304;6.866;2023-04-03T22:23:50;7.07;;;1.30;;
25127;SDS011;13107;51.304;6.866;2023-04-03T22:27:52;2.03;;;1.00;;
25127;SDS011;13107;51.304;6.866;2023-04-03T22:31:54;2.33;;;0.95;;
25127;SDS011;13107;51.304;6.866;2023-04-03T22:35:56;4.00;;;1.12;;
25127;SDS011;13107;51.304;6.866;2023-04-03T22:39:58;4.03;;;1.27;;
25127;SDS011;13107;51.304;6.866;2023-04-03T22:44:00;2.12;;;0.95;;
25127;SDS011;13107;51.304;6.866;2023-04-03T22:48:01;4.00;;;1.10;;
25127;SDS011;13107;51.304;6.866;2023-04-03T22:52:03;2.35;;;0.80;;
25127;SDS011;13107;51.304;6.866;2023-04-03T22:56:05;2.85;;;1.17;;
25127;SDS011;13107;51.304;6.866;2023-04-03T23:00:11;4.80;;;1.17;;
25127;SDS011;13107;51.304;6.866;2023-04-03T23:04:14;7.30;;;1.00;;
25127;SDS011;13107;51.304;6.866;2023-04-03T23:08:16;2.50;;;0.95;;
25127;SDS011;13107;51.304;6.866;2023-04-03T23:12:19;5.40;;;1.20;;
25127;SDS011;13107;51.304;6.866;2023-04-03T23:16:21;3.95;;;1.00;;
25127;SDS011;13107;51.304;6.866;2023-04-03T23:20:23;3.97;;;0.90;;
25127;SDS011;13107;51.304;6.866;2023-04-03T23:24:26;2.72;;;1.10;;
25127;SDS011;13107;51.304;6.866;2023-04-03T23:28:28;2.83;;;1.17;;
25127;SDS011;13107;51.304;6.866;2023-04-03T23:32:30;3.25;;;1.10;;
25127;SDS011;13107;51.304;6.866;2023-04-03T23:36:32;6.18;;;0.98;;
25127;SDS011;13107;51.304;6.866;2023-04-03T23:40:34;3.62;;;1.23;;
25127;SDS011;13107;51.304;6.866;2023-04-03T23:44:35;3.90;;;1.40;;
25127;SDS011;13107;51.304;6.866;2023-04-03T23:48:37;3.10;;;1.23;;
25127;SDS011;13107;51.304;6.866;2023-04-03T23:52:39;4.72;;;1.20;;
25127;SDS011;13107;51.304;6.866;2023-04-03T23:56:41;5.25;;;1.30;;
